sensor_id;sensor_type;location;lat;lon;timestamp;P1;durP1;ratioP1;P2;durP2;ratioP2
9447;SDS011;4762;48.128;11.376;2024-02-26T00:00:24;2.33;;;0.90;;
9447;SDS011;4762;48.128;11.376;2024-02-26T00:02:26;1.67;;;0.67;;
9447;SDS011;4762;48.128;11.376;2024-02-26T00:04:28;1.67;;;0.77;;
9447;SDS011;4762;48.128;11.376;2024-02-26T00:06:31;2.80;;;0.93;;
9447;SDS011;4762;48.128;11.376;2024-02-26T00:08:33;1.77;;;0.67;;
9447;SDS011;4762;48.128;11.376;2024-02-26T00:10:36;2.63;;;1.10;;
9447;SDS011;4762;48.128;11.376;2024-02-26T00:12:38;1.40;;;0.67;;
9447;SDS011;4762;48.128;11.376;2024-02-26T00:14:40;1.50;;;0.50;;
9447;SDS011;4762;48.128;11.376;2024-02-26T00:16:43;2.03;;;0.80;;
9447;SDS011;4762;48.128;11.376;2024-02-26T00:18:45;2.43;;;0.70;;
9447;SDS011;4762;48.128;11.376;2024-02-26T00:20:47;1.60;;;0.60;;
9447;SDS011;4762;48.128;11.376;2024-02-26T00:22:50;1.50;;;0.60;;
9447;SDS011;4762;48.128;11.376;2024-02-26T00:24:52;1.80;;;1.00;;
9447;SDS011;4762;48.128;11.376;2024-02-26T00:26:55;1.40;;;0.60;;
9447;SDS011;4762;48.128;11.376;2024-02-26T00:28:57;1.80;;;0.70;;
9447;SDS011;4762;48.128;11.376;2024-02-26T00:30:59;5.03;;;1.27;;
9447;SDS011;4762;48.128;11.376;2024-02-26T00:35:12;2.17;;;1.03;;
9447;SDS011;4762;48.128;11.376;2024-02-26T00:37:14;1.70;;;0.80;;
9447;SDS011;4762;48.128;11.376;2024-02-26T00:39:17;2.37;;;0.90;;
9447;SDS011;4762;48.128;11.376;2024-02-26T00:41:20;2.70;;;1.47;;
9447;SDS011;4762;48.128;11.376;2024-02-26T00:43:22;3.30;;;1.07;;
9447;SDS011;4762;48.128;11.376;2024-02-26T00:45:24;1.97;;;1.03;;
9447;SDS011;4762;48.128;11.376;2024-02-26T00:47:27;3.00;;;1.37;;
9447;SDS011;4762;48.128;11.376;2024-02-26T00:49:29;2.30;;;1.10;;
9447;SDS011;4762;48.128;11.376;2024-02-26T00:51:31;1.77;;;0.80;;
9447;SDS011;4762;48.128;11.376;2024-02-26T00:53:33;1.90;;;0.90;;
9447;SDS011;4762;48.128;11.376;2024-02-26T00:55:37;2.40;;;0.77;;
9447;SDS011;4762;48.128;11.376;2024-02-26T00:57:39;1.90;;;0.87;;
9447;SDS011;4762;48.128;11.376;2024-02-26T00:59:41;3.87;;;1.00;;
9447;SDS011;4762;48.128;11.376;2024-02-26T01:01:43;2.20;;;1.20;;
9447;SDS011;4762;48.128;11.376;2024-02-26T01:03:45;1.67;;;0.70;;
9447;SDS011;4762;48.128;11.376;2024-02-26T01:05:48;2.10;;;0.87;;
9447;SDS011;4762;48.128;11.376;2024-02-26T01:07:50;4.30;;;0.70;;
9447;SDS011;4762;48.128;11.376;2024-02-26T01:09:52;1.53;;;0.63;;
9447;SDS011;4762;48.128;11.376;2024-02-26T01:11:55;2.60;;;0.80;;
9447;SDS011;4762;48.128;11.376;2024-02-26T01:13:57;1.40;;;0.60;;
9447;SDS011;4762;48.128;11.376;2024-02-26T01:15:59;1.60;;;0.70;;
9447;SDS011;4762;48.128;11.376;2024-02-26T01:18:01;2.07;;;1.07;;
9447;SDS011;4762;48.128;11.376;2024-02-26T01:20:04;1.93;;;0.80;;
9447;SDS011;4762;48.128;11.376;2024-02-26T01:22:07;2.20;;;0.70;;
9447;SDS011;4762;48.128;11.376;2024-02-26T01:24:09;1.87;;;0.80;;
9447;SDS011;4762;48.128;11.376;2024-02-26T01:26:12;1.53;;;0.70;;
9447;SDS011;4762;48.128;11.376;2024-02-26T01:28:14;2.73;;;0.97;;
9447;SDS011;4762;48.128;11.376;2024-02-26T01:30:16;1.47;;;0.80;;
9447;SDS011;4762;48.128;11.376;2024-02-26T01:32:19;1.73;;;0.80;;
9447;SDS011;4762;48.128;11.376;2024-02-26T01:34:21;1.40;;;0.50;;
9447;SDS011;4762;48.128;11.376;2024-02-26T01:36:23;2.10;;;1.00;;
9447;SDS011;4762;48.128;11.376;2024-02-26T01:38:25;1.60;;;0.90;;
9447;SDS011;4762;48.128;11.376;2024-02-26T01:40:28;3.53;;;1.10;;
9447;SDS011;4762;48.128;11.376;2024-02-26T01:42:31;1.40;;;0.60;;
9447;SDS011;4762;48.128;11.376;2024-02-26T01:44:33;2.73;;;1.00;;
9447;SDS011;4762;48.128;11.376;2024-02-26T01:46:35;2.27;;;0.67;;
9447;SDS011;4762;48.128;11.376;2024-02-26T01:48:38;2.03;;;0.80;;
9447;SDS011;4762;48.128;11.376;2024-02-26T01:50:41;1.83;;;0.63;;
9447;SDS011;4762;48.128;11.376;2024-02-26T01:52:43;2.33;;;1.03;;
9447;SDS011;4762;48.128;11.376;2024-02-26T01:54:45;1.83;;;0.73;;
9447;SDS011;4762;48.128;11.376;2024-02-26T01:56:48;1.60;;;0.70;;
9447;SDS011;4762;48.128;11.376;2024-02-26T01:58:50;1.97;;;0.77;;
9447;SDS011;4762;48.128;11.376;2024-02-26T02:00:52;1.80;;;0.80;;
9447;SDS011;4762;48.128;11.376;2024-02-26T02:02:54;3.33;;;1.13;;
9447;SDS011;4762;48.128;11.376;2024-02-26T02:04:57;2.07;;;0.73;;
9447;SDS011;4762;48.128;11.376;2024-02-26T02:07:00;4.13;;;1.10;;
9447;SDS011;4762;48.128;11.376;2024-02-26T02:09:02;2.47;;;0.90;;
9447;SDS011;4762;48.128;11.376;2024-02-26T02:11:04;1.63;;;0.77;;
9447;SDS011;4762;48.128;11.376;2024-02-26T02:13:07;1.40;;;0.60;;
9447;SDS011;4762;48.128;11.376;2024-02-26T02:15:09;1.50;;;0.70;;
9447;SDS011;4762;48.128;11.376;2024-02-26T02:17:11;1.30;;;0.60;;
9447;SDS011;4762;48.128;11.376;2024-02-26T02:19:14;1.40;;;0.60;;
9447;SDS011;4762;48.128;11.376;2024-02-26T02:21:16;1.80;;;0.80;;
9447;SDS011;4762;48.128;11.376;2024-02-26T02:23:18;2.03;;;1.03;;
9447;SDS011;4762;48.128;11.376;2024-02-26T02:25:20;2.43;;;0.97;;
9447;SDS011;4762;48.128;11.376;2024-02-26T02:27:23;1.30;;;0.50;;
9447;SDS011;4762;48.128;11.376;2024-02-26T02:29:25;1.83;;;0.70;;
9447;SDS011;4762;48.128;11.376;2024-02-26T02:31:27;1.70;;;0.70;;
9447;SDS011;4762;48.128;11.376;2024-02-26T02:33:29;1.90;;;0.90;;
9447;SDS011;4762;48.128;11.376;2024-02-26T02:35:32;1.40;;;0.70;;
9447;SDS011;4762;48.128;11.376;2024-02-26T02:37:34;1.83;;;0.70;;
9447;SDS011;4762;48.128;11.376;2024-02-26T02:39:36;1.90;;;0.70;;
9447;SDS011;4762;48.128;11.376;2024-02-26T02:41:40;1.83;;;1.10;;
9447;SDS011;4762;48.128;11.376;2024-02-26T02:43:42;1.83;;;1.00;;
9447;SDS011;4762;48.128;11.376;2024-02-26T02:45:44;2.30;;;0.90;;
9447;SDS011;4762;48.128;11.376;2024-02-26T02:47:47;1.60;;;0.77;;
9447;SDS011;4762;48.128;11.376;2024-02-26T02:49:49;3.37;;;0.63;;
9447;SDS011;4762;48.128;11.376;2024-02-26T02:51:51;2.27;;;1.00;;
9447;SDS011;4762;48.128;11.376;2024-02-26T02:53:53;2.00;;;1.00;;
9447;SDS011;4762;48.128;11.376;2024-02-26T02:55:56;1.40;;;0.70;;
9447;SDS011;4762;48.128;11.376;2024-02-26T02:57:58;1.60;;;0.80;;
9447;SDS011;4762;48.128;11.376;2024-02-26T03:00:00;2.03;;;0.70;;
9447;SDS011;4762;48.128;11.376;2024-02-26T03:02:03;1.50;;;0.70;;
9447;SDS011;4762;48.128;11.376;2024-02-26T03:04:05;1.43;;;0.63;;
9447;SDS011;4762;48.128;11.376;2024-02-26T03:06:07;3.23;;;0.90;;
9447;SDS011;4762;48.128;11.376;2024-02-26T03:08:09;1.90;;;0.90;;
9447;SDS011;4762;48.128;11.376;2024-02-26T03:10:12;5.37;;;0.93;;
9447;SDS011;4762;48.128;11.376;2024-02-26T03:12:14;3.00;;;0.90;;
9447;SDS011;4762;48.128;11.376;2024-02-26T03:14:16;1.73;;;0.73;;
9447;SDS011;4762;48.128;11.376;2024-02-26T03:16:18;1.80;;;0.60;;
9447;SDS011;4762;48.128;11.376;2024-02-26T03:18:21;2.57;;;0.80;;
9447;SDS011;4762;48.128;11.376;2024-02-26T03:20:23;2.10;;;0.90;;
9447;SDS011;4762;48.128;11.376;2024-02-26T03:22:25;2.47;;;0.87;;
9447;SDS011;4762;48.128;11.376;2024-02-26T03:24:27;2.57;;;1.10;;
9447;SDS011;4762;48.128;11.376;2024-02-26T03:26:30;1.73;;;0.73;;
9447;SDS011;4762;48.128;11.376;2024-02-26T03:28:33;2.27;;;1.23;;
9447;SDS011;4762;48.128;11.376;2024-02-26T03:30:35;1.87;;;0.87;;
9447;SDS011;4762;48.128;11.376;2024-02-26T03:32:37;2.13;;;1.07;;
9447;SDS011;4762;48.128;11.376;2024-02-26T03:34:39;1.77;;;0.90;;
9447;SDS011;4762;48.128;11.376;2024-02-26T03:36:42;1.63;;;0.70;;
9447;SDS011;4762;48.128;11.376;2024-02-26T03:38:44;6.20;;;0.97;;
9447;SDS011;4762;48.128;11.376;2024-02-26T03:40:46;1.57;;;0.67;;
9447;SDS011;4762;48.128;11.376;2024-02-26T03:42:48;1.60;;;0.87;;
9447;SDS011;4762;48.128;11.376;2024-02-26T03:44:50;2.00;;;0.83;;
9447;SDS011;4762;48.128;11.376;2024-02-26T03:46:53;6.90;;;1.07;;
9447;SDS011;4762;48.128;11.376;2024-02-26T03:48:55;1.40;;;0.70;;
9447;SDS011;4762;48.128;11.376;2024-02-26T03:50:57;1.73;;;0.90;;
9447;SDS011;4762;48.128;11.376;2024-02-26T03:53:00;1.83;;;1.00;;
9447;SDS011;4762;48.128;11.376;2024-02-26T03:55:02;2.10;;;1.10;;
9447;SDS011;4762;48.128;11.376;2024-02-26T03:57:04;6.70;;;0.97;;
9447;SDS011;4762;48.128;11.376;2024-02-26T03:59:06;1.90;;;0.90;;
9447;SDS011;4762;48.128;11.376;2024-02-26T04:01:09;2.17;;;0.70;;
9447;SDS011;4762;48.128;11.376;2024-02-26T04:03:11;2.20;;;1.00;;
9447;SDS011;4762;48.128;11.376;2024-02-26T04:05:13;1.73;;;0.90;;
9447;SDS011;4762;48.128;11.376;2024-02-26T04:07:16;1.60;;;0.70;;
9447;SDS011;4762;48.128;11.376;2024-02-26T04:09:18;1.57;;;0.83;;
9447;SDS011;4762;48.128;11.376;2024-02-26T04:11:20;2.23;;;1.00;;
9447;SDS011;4762;48.128;11.376;2024-02-26T04:13:22;3.10;;;1.47;;
9447;SDS011;4762;48.128;11.376;2024-02-26T04:15:25;2.90;;;1.10;;
9447;SDS011;4762;48.128;11.376;2024-02-26T04:17:27;1.80;;;1.17;;
9447;SDS011;4762;48.128;11.376;2024-02-26T04:19:29;2.10;;;0.73;;
9447;SDS011;4762;48.128;11.376;2024-02-26T04:21:31;3.53;;;1.07;;
9447;SDS011;4762;48.128;11.376;2024-02-26T04:23:34;1.67;;;0.80;;
9447;SDS011;4762;48.128;11.376;2024-02-26T04:25:36;5.20;;;0.97;;
9447;SDS011;4762;48.128;11.376;2024-02-26T04:27:38;2.03;;;1.03;;
9447;SDS011;4762;48.128;11.376;2024-02-26T04:29:40;2.30;;;1.20;;
9447;SDS011;4762;48.128;11.376;2024-02-26T04:31:43;2.00;;;1.17;;
9447;SDS011;4762;48.128;11.376;2024-02-26T04:33:45;1.50;;;0.73;;
9447;SDS011;4762;48.128;11.376;2024-02-26T04:35:47;2.90;;;1.50;;
9447;SDS011;4762;48.128;11.376;2024-02-26T04:37:49;4.30;;;0.90;;
9447;SDS011;4762;48.128;11.376;2024-02-26T04:39:51;2.57;;;1.10;;
9447;SDS011;4762;48.128;11.376;2024-02-26T04:41:54;2.00;;;1.03;;
9447;SDS011;4762;48.128;11.376;2024-02-26T04:43:56;5.57;;;1.73;;
9447;SDS011;4762;48.128;11.376;2024-02-26T04:45:58;2.23;;;1.00;;
9447;SDS011;4762;48.128;11.376;2024-02-26T04:48:00;5.40;;;1.23;;
9447;SDS011;4762;48.128;11.376;2024-02-26T04:50:03;2.73;;;0.93;;
9447;SDS011;4762;48.128;11.376;2024-02-26T04:52:05;3.90;;;1.40;;
9447;SDS011;4762;48.128;11.376;2024-02-26T04:54:08;2.10;;;1.00;;
9447;SDS011;4762;48.128;11.376;2024-02-26T04:56:10;1.47;;;0.63;;
9447;SDS011;4762;48.128;11.376;2024-02-26T04:58:12;1.83;;;0.70;;
9447;SDS011;4762;48.128;11.376;2024-02-26T05:00:14;1.97;;;1.00;;
9447;SDS011;4762;48.128;11.376;2024-02-26T05:02:17;2.67;;;1.27;;
9447;SDS011;4762;48.128;11.376;2024-02-26T05:04:19;2.33;;;1.10;;
9447;SDS011;4762;48.128;11.376;2024-02-26T05:06:21;3.60;;;1.30;;
9447;SDS011;4762;48.128;11.376;2024-02-26T05:08:24;3.03;;;1.63;;
9447;SDS011;4762;48.128;11.376;2024-02-26T05:10:27;2.87;;;1.30;;
9447;SDS011;4762;48.128;11.376;2024-02-26T05:12:29;5.23;;;1.17;;
9447;SDS011;4762;48.128;11.376;2024-02-26T05:14:31;2.33;;;1.43;;
9447;SDS011;4762;48.128;11.376;2024-02-26T05:16:34;1.57;;;0.67;;
9447;SDS011;4762;48.128;11.376;2024-02-26T05:18:36;1.67;;;1.00;;
9447;SDS011;4762;48.128;11.376;2024-02-26T05:20:38;1.90;;;0.90;;
9447;SDS011;4762;48.128;11.376;2024-02-26T05:22:41;1.70;;;0.80;;
9447;SDS011;4762;48.128;11.376;2024-02-26T05:24:43;2.10;;;1.00;;
9447;SDS011;4762;48.128;11.376;2024-02-26T05:26:45;2.33;;;0.77;;
9447;SDS011;4762;48.128;11.376;2024-02-26T05:28:47;2.70;;;1.00;;
9447;SDS011;4762;48.128;11.376;2024-02-26T05:30:50;1.90;;;0.80;;
9447;SDS011;4762;48.128;11.376;2024-02-26T05:32:52;2.60;;;1.40;;
9447;SDS011;4762;48.128;11.376;2024-02-26T05:34:54;1.90;;;1.13;;
9447;SDS011;4762;48.128;11.376;2024-02-26T05:36:56;2.07;;;0.90;;
9447;SDS011;4762;48.128;11.376;2024-02-26T05:39:00;2.70;;;1.67;;
9447;SDS011;4762;48.128;11.376;2024-02-26T05:41:02;3.00;;;1.60;;
9447;SDS011;4762;48.128;11.376;2024-02-26T05:43:04;2.40;;;1.23;;
9447;SDS011;4762;48.128;11.376;2024-02-26T05:45:07;2.17;;;1.13;;
9447;SDS011;4762;48.128;11.376;2024-02-26T05:47:09;2.00;;;0.93;;
9447;SDS011;4762;48.128;11.376;2024-02-26T05:49:11;2.03;;;0.90;;
9447;SDS011;4762;48.128;11.376;2024-02-26T05:51:14;3.20;;;1.60;;
9447;SDS011;4762;48.128;11.376;2024-02-26T05:53:17;1.80;;;1.00;;
9447;SDS011;4762;48.128;11.376;2024-02-26T05:55:19;1.70;;;0.80;;
9447;SDS011;4762;48.128;11.376;2024-02-26T05:57:21;4.23;;;1.60;;
9447;SDS011;4762;48.128;11.376;2024-02-26T05:59:23;1.97;;;1.00;;
9447;SDS011;4762;48.128;11.376;2024-02-26T06:01:25;4.70;;;1.40;;
9447;SDS011;4762;48.128;11.376;2024-02-26T06:03:28;1.67;;;0.93;;
9447;SDS011;4762;48.128;11.376;2024-02-26T06:05:30;2.53;;;1.33;;
9447;SDS011;4762;48.128;11.376;2024-02-26T06:07:32;1.70;;;1.10;;
9447;SDS011;4762;48.128;11.376;2024-02-26T06:09:34;3.17;;;1.40;;
9447;SDS011;4762;48.128;11.376;2024-02-26T06:11:37;3.13;;;1.40;;
9447;SDS011;4762;48.128;11.376;2024-02-26T06:13:39;1.90;;;1.20;;
9447;SDS011;4762;48.128;11.376;2024-02-26T06:15:41;3.07;;;1.20;;
9447;SDS011;4762;48.128;11.376;2024-02-26T06:17:44;3.10;;;1.90;;
9447;SDS011;4762;48.128;11.376;2024-02-26T06:19:46;1.97;;;1.10;;
9447;SDS011;4762;48.128;11.376;2024-02-26T06:21:48;2.40;;;1.43;;
9447;SDS011;4762;48.128;11.376;2024-02-26T06:23:50;3.20;;;1.53;;
9447;SDS011;4762;48.128;11.376;2024-02-26T06:25:53;2.93;;;1.80;;
9447;SDS011;4762;48.128;11.376;2024-02-26T06:27:55;2.80;;;1.90;;
9447;SDS011;4762;48.128;11.376;2024-02-26T06:29:57;9.00;;;1.40;;
9447;SDS011;4762;48.128;11.376;2024-02-26T06:31:59;3.40;;;1.60;;
9447;SDS011;4762;48.128;11.376;2024-02-26T06:34:01;2.80;;;1.63;;
9447;SDS011;4762;48.128;11.376;2024-02-26T06:36:04;3.90;;;1.93;;
9447;SDS011;4762;48.128;11.376;2024-02-26T06:38:06;4.87;;;1.87;;
9447;SDS011;4762;48.128;11.376;2024-02-26T06:40:08;3.60;;;1.67;;
9447;SDS011;4762;48.128;11.376;2024-02-26T06:42:11;6.20;;;3.87;;
9447;SDS011;4762;48.128;11.376;2024-02-26T06:44:14;6.43;;;4.07;;
9447;SDS011;4762;48.128;11.376;2024-02-26T06:46:16;3.77;;;2.73;;
9447;SDS011;4762;48.128;11.376;2024-02-26T06:48:20;5.30;;;1.80;;
9447;SDS011;4762;48.128;11.376;2024-02-26T06:50:23;3.57;;;1.70;;
9447;SDS011;4762;48.128;11.376;2024-02-26T06:52:26;3.73;;;1.47;;
9447;SDS011;4762;48.128;11.376;2024-02-26T06:54:28;3.07;;;1.93;;
9447;SDS011;4762;48.128;11.376;2024-02-26T06:56:30;2.13;;;1.17;;
9447;SDS011;4762;48.128;11.376;2024-02-26T06:58:33;2.70;;;1.70;;
9447;SDS011;4762;48.128;11.376;2024-02-26T07:00:36;2.43;;;1.37;;
9447;SDS011;4762;48.128;11.376;2024-02-26T07:02:38;3.57;;;1.90;;
9447;SDS011;4762;48.128;11.376;2024-02-26T07:04:42;3.03;;;1.53;;
9447;SDS011;4762;48.128;11.376;2024-02-26T07:06:44;4.40;;;1.90;;
9447;SDS011;4762;48.128;11.376;2024-02-26T07:08:46;2.70;;;1.67;;
9447;SDS011;4762;48.128;11.376;2024-02-26T07:10:49;4.63;;;1.97;;
9447;SDS011;4762;48.128;11.376;2024-02-26T07:12:51;3.70;;;2.23;;
9447;SDS011;4762;48.128;11.376;2024-02-26T07:14:53;4.30;;;1.87;;
9447;SDS011;4762;48.128;11.376;2024-02-26T07:16:56;4.30;;;1.63;;
9447;SDS011;4762;48.128;11.376;2024-02-26T07:18:58;5.77;;;1.93;;
9447;SDS011;4762;48.128;11.376;2024-02-26T07:21:02;3.43;;;1.70;;
9447;SDS011;4762;48.128;11.376;2024-02-26T07:23:04;4.10;;;1.50;;
9447;SDS011;4762;48.128;11.376;2024-02-26T07:25:06;2.87;;;1.60;;
9447;SDS011;4762;48.128;11.376;2024-02-26T07:27:08;4.80;;;1.73;;
9447;SDS011;4762;48.128;11.376;2024-02-26T07:29:10;2.97;;;1.30;;
9447;SDS011;4762;48.128;11.376;2024-02-26T07:31:13;3.23;;;1.77;;
9447;SDS011;4762;48.128;11.376;2024-02-26T07:33:15;4.13;;;1.73;;
9447;SDS011;4762;48.128;11.376;2024-02-26T07:35:17;4.57;;;1.90;;
9447;SDS011;4762;48.128;11.376;2024-02-26T07:37:19;6.20;;;3.20;;
9447;SDS011;4762;48.128;11.376;2024-02-26T07:39:23;3.23;;;1.67;;
9447;SDS011;4762;48.128;11.376;2024-02-26T07:41:25;3.80;;;1.77;;
9447;SDS011;4762;48.128;11.376;2024-02-26T07:43:27;4.77;;;2.10;;
9447;SDS011;4762;48.128;11.376;2024-02-26T07:45:30;4.97;;;2.33;;
9447;SDS011;4762;48.128;11.376;2024-02-26T07:47:34;4.97;;;2.07;;
9447;SDS011;4762;48.128;11.376;2024-02-26T07:49:36;4.13;;;2.80;;
9447;SDS011;4762;48.128;11.376;2024-02-26T07:51:39;5.20;;;2.83;;
9447;SDS011;4762;48.128;11.376;2024-02-26T07:53:43;3.93;;;2.00;;
9447;SDS011;4762;48.128;11.376;2024-02-26T07:55:45;3.50;;;2.17;;
9447;SDS011;4762;48.128;11.376;2024-02-26T07:57:47;2.70;;;1.70;;
9447;SDS011;4762;48.128;11.376;2024-02-26T07:59:49;4.20;;;2.60;;
9447;SDS011;4762;48.128;11.376;2024-02-26T08:01:52;3.77;;;1.90;;
9447;SDS011;4762;48.128;11.376;2024-02-26T08:03:55;8.67;;;2.33;;
9447;SDS011;4762;48.128;11.376;2024-02-26T08:05:57;6.20;;;2.63;;
9447;SDS011;4762;48.128;11.376;2024-02-26T08:08:00;2.60;;;1.80;;
9447;SDS011;4762;48.128;11.376;2024-02-26T08:10:02;3.60;;;2.40;;
9447;SDS011;4762;48.128;11.376;2024-02-26T08:12:04;3.40;;;1.97;;
9447;SDS011;4762;48.128;11.376;2024-02-26T08:14:07;3.13;;;1.93;;
9447;SDS011;4762;48.128;11.376;2024-02-26T08:16:09;7.17;;;2.40;;
9447;SDS011;4762;48.128;11.376;2024-02-26T08:18:12;3.47;;;2.20;;
9447;SDS011;4762;48.128;11.376;2024-02-26T08:20:14;3.57;;;1.93;;
9447;SDS011;4762;48.128;11.376;2024-02-26T08:22:16;3.27;;;1.90;;
9447;SDS011;4762;48.128;11.376;2024-02-26T08:24:19;3.63;;;2.00;;
9447;SDS011;4762;48.128;11.376;2024-02-26T08:26:21;2.93;;;1.67;;
9447;SDS011;4762;48.128;11.376;2024-02-26T08:28:23;4.07;;;2.23;;
9447;SDS011;4762;48.128;11.376;2024-02-26T08:30:25;5.90;;;2.27;;
9447;SDS011;4762;48.128;11.376;2024-02-26T08:32:28;8.90;;;2.70;;
9447;SDS011;4762;48.128;11.376;2024-02-26T08:34:30;3.53;;;2.00;;
9447;SDS011;4762;48.128;11.376;2024-02-26T08:36:33;4.30;;;1.90;;
9447;SDS011;4762;48.128;11.376;2024-02-26T08:38:35;3.83;;;2.33;;
9447;SDS011;4762;48.128;11.376;2024-02-26T08:40:37;8.60;;;2.20;;
9447;SDS011;4762;48.128;11.376;2024-02-26T08:42:39;7.03;;;1.63;;
9447;SDS011;4762;48.128;11.376;2024-02-26T08:44:42;4.50;;;1.97;;
9447;SDS011;4762;48.128;11.376;2024-02-26T08:46:44;3.80;;;2.30;;
9447;SDS011;4762;48.128;11.376;2024-02-26T08:48:46;7.00;;;2.70;;
9447;SDS011;4762;48.128;11.376;2024-02-26T08:50:48;4.43;;;2.33;;
9447;SDS011;4762;48.128;11.376;2024-02-26T08:52:50;3.90;;;2.03;;
9447;SDS011;4762;48.128;11.376;2024-02-26T08:54:54;2.80;;;1.80;;
9447;SDS011;4762;48.128;11.376;2024-02-26T08:56:56;5.13;;;2.30;;
9447;SDS011;4762;48.128;11.376;2024-02-26T08:58:59;2.77;;;1.90;;
9447;SDS011;4762;48.128;11.376;2024-02-26T09:01:01;3.60;;;2.30;;
9447;SDS011;4762;48.128;11.376;2024-02-26T09:03:03;21.23;;;2.20;;
9447;SDS011;4762;48.128;11.376;2024-02-26T09:05:06;3.90;;;2.00;;
9447;SDS011;4762;48.128;11.376;2024-02-26T09:07:08;6.70;;;2.30;;
9447;SDS011;4762;48.128;11.376;2024-02-26T09:09:11;6.33;;;2.77;;
9447;SDS011;4762;48.128;11.376;2024-02-26T09:11:13;10.07;;;2.47;;
9447;SDS011;4762;48.128;11.376;2024-02-26T09:13:15;7.83;;;2.73;;
9447;SDS011;4762;48.128;11.376;2024-02-26T09:15:18;7.33;;;2.67;;
9447;SDS011;4762;48.128;11.376;2024-02-26T09:17:20;9.40;;;2.47;;
9447;SDS011;4762;48.128;11.376;2024-02-26T09:19:23;8.90;;;2.90;;
9447;SDS011;4762;48.128;11.376;2024-02-26T09:21:24;7.10;;;3.47;;
9447;SDS011;4762;48.128;11.376;2024-02-26T09:23:27;6.27;;;2.40;;
9447;SDS011;4762;48.128;11.376;2024-02-26T09:25:29;3.43;;;2.20;;
9447;SDS011;4762;48.128;11.376;2024-02-26T09:27:31;3.73;;;2.40;;
9447;SDS011;4762;48.128;11.376;2024-02-26T09:29:35;4.47;;;2.73;;
9447;SDS011;4762;48.128;11.376;2024-02-26T09:31:36;5.20;;;3.10;;
9447;SDS011;4762;48.128;11.376;2024-02-26T09:33:38;4.30;;;2.57;;
9447;SDS011;4762;48.128;11.376;2024-02-26T09:35:41;14.63;;;3.37;;
9447;SDS011;4762;48.128;11.376;2024-02-26T09:37:43;4.10;;;2.33;;
9447;SDS011;4762;48.128;11.376;2024-02-26T09:39:45;5.00;;;2.60;;
9447;SDS011;4762;48.128;11.376;2024-02-26T09:41:47;5.77;;;1.83;;
9447;SDS011;4762;48.128;11.376;2024-02-26T09:43:50;5.57;;;2.73;;
9447;SDS011;4762;48.128;11.376;2024-02-26T09:45:53;4.57;;;2.17;;
9447;SDS011;4762;48.128;11.376;2024-02-26T09:47:55;4.57;;;2.60;;
9447;SDS011;4762;48.128;11.376;2024-02-26T09:49:58;5.23;;;3.23;;
9447;SDS011;4762;48.128;11.376;2024-02-26T09:52:00;6.63;;;2.30;;
9447;SDS011;4762;48.128;11.376;2024-02-26T09:54:02;6.33;;;2.40;;
9447;SDS011;4762;48.128;11.376;2024-02-26T09:56:05;4.83;;;2.10;;
9447;SDS011;4762;48.128;11.376;2024-02-26T09:58:07;3.70;;;1.87;;
9447;SDS011;4762;48.128;11.376;2024-02-26T10:00:09;5.40;;;2.10;;
9447;SDS011;4762;48.128;11.376;2024-02-26T10:02:13;4.87;;;2.23;;
9447;SDS011;4762;48.128;11.376;2024-02-26T10:04:15;3.27;;;1.53;;
9447;SDS011;4762;48.128;11.376;2024-02-26T10:06:17;5.53;;;2.20;;
9447;SDS011;4762;48.128;11.376;2024-02-26T10:08:19;5.97;;;2.07;;
9447;SDS011;4762;48.128;11.376;2024-02-26T10:10:22;3.07;;;1.63;;
9447;SDS011;4762;48.128;11.376;2024-02-26T10:12:25;3.37;;;1.70;;
9447;SDS011;4762;48.128;11.376;2024-02-26T10:14:28;5.20;;;2.50;;
9447;SDS011;4762;48.128;11.376;2024-02-26T10:16:31;4.53;;;2.30;;
9447;SDS011;4762;48.128;11.376;2024-02-26T10:23:03;3.60;;;1.80;;
9447;SDS011;4762;48.128;11.376;2024-02-26T10:25:06;4.57;;;1.73;;
9447;SDS011;4762;48.128;11.376;2024-02-26T10:27:08;3.53;;;1.77;;
9447;SDS011;4762;48.128;11.376;2024-02-26T10:29:11;3.30;;;1.33;;
9447;SDS011;4762;48.128;11.376;2024-02-26T10:31:13;2.93;;;1.23;;
9447;SDS011;4762;48.128;11.376;2024-02-26T10:33:15;6.43;;;1.40;;
9447;SDS011;4762;48.128;11.376;2024-02-26T10:35:19;3.20;;;1.00;;
9447;SDS011;4762;48.128;11.376;2024-02-26T10:37:23;2.97;;;1.17;;
9447;SDS011;4762;48.128;11.376;2024-02-26T10:39:25;2.00;;;0.80;;
9447;SDS011;4762;48.128;11.376;2024-02-26T10:41:27;2.30;;;0.80;;
9447;SDS011;4762;48.128;11.376;2024-02-26T10:43:29;2.90;;;1.00;;
9447;SDS011;4762;48.128;11.376;2024-02-26T10:45:31;2.50;;;0.90;;
9447;SDS011;4762;48.128;11.376;2024-02-26T10:47:34;3.60;;;1.47;;
9447;SDS011;4762;48.128;11.376;2024-02-26T10:49:44;2.30;;;1.00;;
9447;SDS011;4762;48.128;11.376;2024-02-26T10:51:42;3.63;;;1.27;;
9447;SDS011;4762;48.128;11.376;2024-02-26T10:53:43;2.40;;;0.90;;
9447;SDS011;4762;48.128;11.376;2024-02-26T10:55:47;3.90;;;1.30;;
9447;SDS011;4762;48.128;11.376;2024-02-26T10:57:52;6.30;;;1.40;;
9447;SDS011;4762;48.128;11.376;2024-02-26T10:59:54;4.13;;;1.23;;
9447;SDS011;4762;48.128;11.376;2024-02-26T11:01:57;2.50;;;0.80;;
9447;SDS011;4762;48.128;11.376;2024-02-26T11:03:59;3.43;;;1.00;;
9447;SDS011;4762;48.128;11.376;2024-02-26T11:06:01;3.63;;;0.93;;
9447;SDS011;4762;48.128;11.376;2024-02-26T11:08:04;3.37;;;0.97;;
9447;SDS011;4762;48.128;11.376;2024-02-26T11:10:06;2.97;;;1.23;;
9447;SDS011;4762;48.128;11.376;2024-02-26T11:12:10;10.87;;;1.20;;
9447;SDS011;4762;48.128;11.376;2024-02-26T11:14:13;2.90;;;1.10;;
9447;SDS011;4762;48.128;11.376;2024-02-26T11:16:16;2.43;;;0.80;;
9447;SDS011;4762;48.128;11.376;2024-02-26T11:18:20;3.70;;;0.90;;
9447;SDS011;4762;48.128;11.376;2024-02-26T11:20:22;2.20;;;0.67;;
9447;SDS011;4762;48.128;11.376;2024-02-26T11:22:25;3.33;;;0.90;;
9447;SDS011;4762;48.128;11.376;2024-02-26T11:24:28;2.10;;;0.60;;
9447;SDS011;4762;48.128;11.376;2024-02-26T11:26:30;10.57;;;1.37;;
9447;SDS011;4762;48.128;11.376;2024-02-26T11:28:32;2.40;;;0.80;;
9447;SDS011;4762;48.128;11.376;2024-02-26T11:30:36;2.30;;;0.73;;
9447;SDS011;4762;48.128;11.376;2024-02-26T11:32:37;2.53;;;0.93;;
9447;SDS011;4762;48.128;11.376;2024-02-26T11:34:39;2.33;;;0.80;;
9447;SDS011;4762;48.128;11.376;2024-02-26T11:36:41;3.47;;;0.80;;
9447;SDS011;4762;48.128;11.376;2024-02-26T11:38:44;4.07;;;0.90;;
9447;SDS011;4762;48.128;11.376;2024-02-26T11:40:46;4.43;;;1.20;;
9447;SDS011;4762;48.128;11.376;2024-02-26T11:42:48;3.33;;;1.10;;
9447;SDS011;4762;48.128;11.376;2024-02-26T11:44:50;2.70;;;0.87;;
9447;SDS011;4762;48.128;11.376;2024-02-26T11:46:52;2.73;;;0.77;;
9447;SDS011;4762;48.128;11.376;2024-02-26T11:48:58;2.70;;;0.70;;
9447;SDS011;4762;48.128;11.376;2024-02-26T11:51:00;2.23;;;0.53;;
9447;SDS011;4762;48.128;11.376;2024-02-26T11:53:22;2.80;;;0.60;;
9447;SDS011;4762;48.128;11.376;2024-02-26T11:55:35;5.13;;;1.00;;
9447;SDS011;4762;48.128;11.376;2024-02-26T11:57:38;2.50;;;0.70;;
9447;SDS011;4762;48.128;11.376;2024-02-26T11:59:40;2.40;;;0.60;;
9447;SDS011;4762;48.128;11.376;2024-02-26T12:01:43;2.63;;;0.87;;
9447;SDS011;4762;48.128;11.376;2024-02-26T12:03:45;2.50;;;0.80;;
9447;SDS011;4762;48.128;11.376;2024-02-26T12:05:48;2.60;;;0.70;;
9447;SDS011;4762;48.128;11.376;2024-02-26T12:07:53;4.47;;;0.93;;
9447;SDS011;4762;48.128;11.376;2024-02-26T12:10:13;5.13;;;1.10;;
9447;SDS011;4762;48.128;11.376;2024-02-26T12:11:58;3.17;;;0.73;;
9447;SDS011;4762;48.128;11.376;2024-02-26T12:14:00;4.13;;;1.03;;
9447;SDS011;4762;48.128;11.376;2024-02-26T12:16:03;3.17;;;0.90;;
9447;SDS011;4762;48.128;11.376;2024-02-26T12:18:06;2.60;;;0.73;;
9447;SDS011;4762;48.128;11.376;2024-02-26T12:20:14;2.60;;;0.70;;
9447;SDS011;4762;48.128;11.376;2024-02-26T12:22:17;2.73;;;1.00;;
9447;SDS011;4762;48.128;11.376;2024-02-26T12:24:21;2.63;;;0.67;;
9447;SDS011;4762;48.128;11.376;2024-02-26T12:26:23;2.57;;;0.63;;
9447;SDS011;4762;48.128;11.376;2024-02-26T12:28:29;6.97;;;1.27;;
9447;SDS011;4762;48.128;11.376;2024-02-26T12:30:31;3.13;;;0.83;;
9447;SDS011;4762;48.128;11.376;2024-02-26T12:32:34;2.77;;;0.73;;
9447;SDS011;4762;48.128;11.376;2024-02-26T12:34:37;3.03;;;0.90;;